createdAt,value
2022-10-05T16:48:44.339Z,36.66
2022-10-05T16:49:47.167Z,36.33
2022-10-05T16:50:49.979Z,36.4
2022-10-05T16:51:52.995Z,36.05
2022-10-05T16:52:55.801Z,36.08
2022-10-05T16:53:58.647Z,36.12
2022-10-05T16:55:01.492Z,36.11
2022-10-05T16:56:04.323Z,36.8
2022-10-05T16:57:07.146Z,36.8
2022-10-05T16:58:10.029Z,36.25
2022-10-05T16:59:12.846Z,36.57
2022-10-05T17:00:16.375Z,36.82
2022-10-05T17:01:15.887Z,36.2
2022-10-05T17:02:19.293Z,36.05
2022-10-05T17:03:22.201Z,35.81
2022-10-05T17:04:25.071Z,35.18
2022-10-05T17:05:27.929Z,35.24
2022-10-05T17:06:30.767Z,35.81
2022-10-05T17:07:33.596Z,36.41
2022-10-05T17:08:36.419Z,35.96
2022-10-05T17:09:39.282Z,36.68
2022-10-05T17:10:42.229Z,36.76
2022-10-05T17:11:45.080Z,36.36
2022-10-05T17:12:47.935Z,35.94
2022-10-05T17:13:50.852Z,36.04
2022-10-05T17:14:53.671Z,35.97
2022-10-05T17:15:56.740Z,36.71
2022-10-05T17:16:59.775Z,36.5
2022-10-05T17:18:02.630Z,37.15
2022-10-05T17:19:05.455Z,38.01
2022-10-05T17:20:08.341Z,37.65
2022-10-05T17:21:11.195Z,37.6
2022-10-05T17:22:14.053Z,37.58
2022-10-05T17:23:16.892Z,37.54
2022-10-05T17:24:19.737Z,37.88
2022-10-05T17:25:22.627Z,38.61
2022-10-05T17:26:25.467Z,38.31
2022-10-05T17:27:28.309Z,38.81
2022-10-05T17:28:31.505Z,38.75
2022-10-05T17:29:31.190Z,39.13
2022-10-05T17:30:34.230Z,39.4
2022-10-05T17:31:34.159Z,39.47
2022-10-05T17:32:36.976Z,38.86
2022-10-05T17:33:39.816Z,39.17
2022-10-05T17:34:42.657Z,39.37
2022-10-05T17:35:45.867Z,39.38
2022-10-05T17:36:51.542Z,38.57
2022-10-05T17:37:50.919Z,38.31
2022-10-05T17:38:53.779Z,38.65
2022-10-05T17:39:56.587Z,39.02
2022-10-05T17:40:59.410Z,39.23
2022-10-05T17:42:02.253Z,38.84
2022-10-05T17:43:05.117Z,38.94
2022-10-05T17:44:07.943Z,39.09
2022-10-05T17:45:10.829Z,39.19
2022-10-05T17:46:13.873Z,39.46
2022-10-05T17:47:16.859Z,39.35
2022-10-05T17:48:19.678Z,39.6
2022-10-05T17:49:22.572Z,39.73
2022-10-05T17:50:25.431Z,39.93
2022-10-05T17:51:28.370Z,40.02
2022-10-05T17:52:31.419Z,40.42
2022-10-05T17:53:34.327Z,40.66
2022-10-05T17:54:37.193Z,40.37
2022-10-05T17:55:40.051Z,40.67
2022-10-05T17:56:42.887Z,40.92
2022-10-05T17:57:45.777Z,41.21
2022-10-05T17:58:48.604Z,41.24
2022-10-05T17:59:51.423Z,41.57
2022-10-05T18:00:54.241Z,41.63
2022-10-05T18:01:57.257Z,41.39
2022-10-05T18:03:00.560Z,41.61
2022-10-05T18:04:03.605Z,42.01
2022-10-05T18:05:06.468Z,42.66
2022-10-05T18:06:09.305Z,42.46
2022-10-05T18:07:12.462Z,42.9
2022-10-05T18:08:15.385Z,42.34
2022-10-05T18:09:18.388Z,42.47
2022-10-05T18:10:21.244Z,42.53
2022-10-05T18:11:24.081Z,42.39
2022-10-05T18:12:26.939Z,43.17
2022-10-05T18:13:29.764Z,42.66
2022-10-05T18:14:32.645Z,42.99
2022-10-05T18:15:35.591Z,42.69
2022-10-05T18:16:38.789Z,43.25
2022-10-05T18:17:41.616Z,42.56
2022-10-05T18:18:44.460Z,42.54
2022-10-05T18:19:47.285Z,42.69
2022-10-05T18:20:50.151Z,42.81
2022-10-05T18:21:53.054Z,42.96
2022-10-05T18:22:56.073Z,43.25
2022-10-05T18:23:58.932Z,43.55
2022-10-05T18:25:01.789Z,43.62
2022-10-05T18:26:04.669Z,43.78
2022-10-05T18:27:07.523Z,44.25
2022-10-05T18:28:10.576Z,44.12
2022-10-05T18:29:13.576Z,43.84
2022-10-05T18:30:16.432Z,44.03
2022-10-05T18:31:19.468Z,43.92
2022-10-05T18:32:22.350Z,44.72
2022-10-05T18:33:25.164Z,44.2
2022-10-05T18:34:28.034Z,43.85
2022-10-05T18:35:30.884Z,44.25
2022-10-05T18:36:38.318Z,44.04
2022-10-05T18:37:34.311Z,44.22
2022-10-05T18:38:37.338Z,44.42
2022-10-05T18:39:40.276Z,44.66
2022-10-05T18:40:43.275Z,45
2022-10-05T18:41:46.110Z,45.53
2022-10-05T18:42:49.068Z,45.88
2022-10-05T18:43:51.921Z,45.38
2022-10-05T18:44:54.736Z,45.37
2022-10-05T18:45:57.945Z,45.37
2022-10-05T18:46:58.062Z,45.17
2022-10-05T18:48:00.880Z,45.4
2022-10-05T18:49:03.723Z,45.6
2022-10-05T18:50:06.577Z,45.42
2022-10-05T18:51:09.420Z,45.52
2022-10-05T18:52:12.250Z,45.72
2022-10-05T18:53:15.074Z,45.52
2022-10-05T18:54:17.992Z,45.39
2022-10-05T18:55:20.984Z,45.32
2022-10-05T18:56:23.846Z,45.21
2022-10-05T18:57:26.694Z,45.24
2022-10-05T18:58:30.524Z,45.23
2022-10-05T18:59:30.247Z,44.99
2022-10-05T19:00:33.131Z,45.01
2022-10-05T19:01:36.361Z,45.19
2022-10-05T19:02:36.569Z,45.29
2022-10-05T19:03:36.469Z,45.59
2022-10-05T19:04:39.299Z,45.63
2022-10-05T19:05:49.195Z,46.4
2022-10-05T19:06:45.356Z,45.94
2022-10-05T19:07:48.195Z,46.25
2022-10-05T19:08:51.085Z,46.07
2022-10-05T19:09:54.092Z,46.36
2022-10-05T19:10:56.936Z,46.07
2022-10-05T19:12:00.170Z,46.22
2022-10-05T19:13:03.261Z,46.31
2022-10-05T19:14:06.125Z,46.07
2022-10-05T19:15:09.022Z,46.09
2022-10-05T19:16:12.113Z,46.15
2022-10-05T19:17:15.288Z,46.76
2022-10-05T19:18:18.120Z,46.18
2022-10-05T19:19:33.253Z,46.18
2022-10-05T19:20:22.747Z,46.26
2022-10-05T19:21:25.579Z,46.9
2022-10-05T19:22:28.596Z,46.74
2022-10-05T19:23:31.446Z,46.75
2022-10-05T19:24:34.275Z,46.71
2022-10-05T19:25:37.235Z,46.99
2022-10-05T19:26:40.122Z,46.94
2022-10-05T19:28:45.776Z,46.8
2022-10-05T19:29:49.165Z,46.79
2022-10-05T19:30:52.178Z,46.61
2022-10-05T19:31:55.458Z,46.45
2022-10-05T19:32:58.282Z,46.31
2022-10-05T19:34:01.148Z,46.45
2022-10-05T19:35:04.106Z,46.43
2022-10-05T19:36:06.999Z,46.49
2022-10-05T19:37:10.032Z,46.98
2022-10-05T19:38:16.055Z,47.25
2022-10-05T19:39:16.125Z,47.62
2022-10-05T19:40:19.125Z,47.86
2022-10-05T19:41:22.251Z,48.35
2022-10-05T19:42:25.352Z,48.41
2022-10-05T19:43:29.325Z,48.69
2022-10-05T19:44:30.340Z,48.83
2022-10-05T19:45:33.402Z,49.21
2022-10-05T19:46:36.644Z,49.54
2022-10-05T19:47:41.582Z,49.63
2022-10-05T19:48:41.243Z,49.34
2022-10-05T19:49:40.922Z,49.66
2022-10-05T19:50:40.740Z,49.74
2022-10-05T19:51:43.616Z,49.93
2022-10-05T19:52:50.334Z,49.58
2022-10-05T19:53:50.287Z,49.69
2022-10-05T19:54:53.261Z,49.68
2022-10-05T19:55:56.206Z,49.71
2022-10-05T19:56:59.423Z,49.53
2022-10-05T19:58:02.527Z,50
2022-10-05T19:59:05.595Z,49.67
2022-10-05T20:00:08.557Z,49.51
2022-10-05T20:01:11.519Z,49.48
2022-10-05T20:02:14.955Z,49.53
2022-10-05T20:03:17.694Z,49.69
2022-10-05T20:04:17.724Z,49.98
2022-10-05T20:05:20.908Z,50.15
2022-10-05T20:06:22.541Z,50.15
2022-10-05T20:07:25.781Z,50.45
2022-10-05T20:08:29.997Z,49.97
2022-10-05T20:09:30.649Z,49.67
2022-10-05T20:10:33.862Z,49.57
2022-10-05T20:11:37.134Z,49.45
2022-10-05T20:12:39.330Z,49.34
2022-10-05T20:13:38.547Z,49.33
2022-10-05T20:14:42.015Z,49.76
2022-10-05T20:15:45.278Z,49.7
2022-10-05T20:16:46.051Z,49.87
2022-10-05T20:17:45.740Z,49.9
2022-10-05T20:18:49.021Z,50.1
2022-10-05T20:19:48.992Z,50.28
2022-10-05T20:20:53.317Z,50.22
2022-10-05T20:21:53.128Z,50.22
2022-10-05T20:22:52.949Z,50.23
2022-10-05T20:23:56.257Z,50.06
2022-10-05T20:24:59.549Z,50.22
2022-10-05T20:26:05.598Z,50.58
2022-10-05T20:27:09.650Z,50.54
2022-10-05T20:28:07.159Z,50.57
2022-10-05T20:29:09.348Z,50.48
2022-10-05T20:30:09.448Z,50.18
2022-10-05T20:31:11.916Z,49.96
2022-10-05T20:32:15.093Z,49.97
2022-10-05T20:33:23.799Z,50.13
2022-10-05T20:34:16.733Z,50.37
2022-10-05T20:35:17.007Z,50.46
2022-10-05T20:36:20.161Z,50.85
2022-10-05T20:37:23.343Z,50.96
2022-10-05T20:38:27.421Z,51.06
2022-10-05T20:39:28.123Z,51.1
2022-10-05T20:40:34.421Z,51.25
2022-10-05T20:41:34.077Z,50.87
2022-10-05T20:42:38.178Z,50.81
2022-10-05T20:43:38.287Z,50.77
2022-10-05T20:44:38.059Z,50.83
2022-10-05T20:45:41.884Z,50.55
2022-10-05T20:46:43.361Z,50.67
2022-10-05T20:47:43.221Z,50.7
2022-10-05T20:48:46.251Z,50.89
2022-10-05T20:49:49.605Z,51.08
2022-10-05T20:50:49.618Z,50.87
2022-10-05T20:51:52.656Z,51.22
2022-10-05T20:52:55.877Z,51.17
2022-10-05T20:54:01.949Z,51.26
2022-10-05T20:55:02.175Z,51.42
2022-10-05T20:56:05.514Z,51.21
2022-10-05T20:57:08.761Z,51.14
2022-10-05T20:58:12.108Z,51.28
2022-10-05T20:59:14.407Z,51.26
2022-10-05T21:00:13.880Z,51.21
2022-10-05T21:01:16.985Z,51.34
2022-10-05T21:02:20.123Z,51.45
2022-10-05T21:03:23.035Z,51.52
2022-10-05T21:04:26.171Z,51.57
2022-10-05T21:05:27.549Z,51.55
2022-10-05T21:06:30.727Z,51.75
2022-10-05T21:07:33.748Z,52.33
2022-10-05T21:08:41.741Z,52.3
2022-10-05T21:09:40.555Z,52.69
2022-10-05T21:10:40.292Z,53.57
2022-10-05T21:11:43.384Z,54.69
2022-10-05T21:12:46.285Z,54.89
2022-10-05T21:13:49.100Z,54.76
2022-10-05T21:14:52.103Z,54.93
2022-10-05T21:15:55.363Z,55.27
2022-10-05T21:16:58.611Z,55.16
2022-10-05T21:18:01.466Z,55.29
2022-10-05T21:19:04.500Z,55.38
2022-10-05T21:20:07.478Z,55.15
2022-10-05T21:21:10.954Z,55.29
2022-10-05T21:22:10.697Z,55.12
2022-10-05T21:23:13.615Z,55.47
2022-10-05T21:24:16.445Z,56.19
2022-10-05T21:25:19.364Z,55.8
2022-10-05T21:26:22.174Z,55.87
2022-10-05T21:27:25.055Z,55.83
2022-10-05T21:28:30.078Z,56
2022-10-05T21:29:29.470Z,55.33
2022-10-05T21:30:32.396Z,55.71
2022-10-05T21:31:35.382Z,55.15
2022-10-05T21:32:44.734Z,55.06
2022-10-05T21:33:41.504Z,55.19
2022-10-05T21:34:44.939Z,55.77
2022-10-05T21:35:48.366Z,56.09
2022-10-05T21:36:51.245Z,56.68
2022-10-05T21:37:54.486Z,56.47
2022-10-05T21:38:55.118Z,56.23
2022-10-05T21:39:55.167Z,56.94
2022-10-05T21:40:58.762Z,56.95
2022-10-05T21:42:01.760Z,56.9
2022-10-05T21:43:04.588Z,56.96
2022-10-05T21:44:07.426Z,57.04
2022-10-05T21:45:10.230Z,57.46
2022-10-05T21:46:13.304Z,58.16
2022-10-05T21:47:16.371Z,58.66
2022-10-05T21:48:19.383Z,59.13
2022-10-05T21:49:22.302Z,58.97
2022-10-05T21:50:25.132Z,59.61
2022-10-05T21:51:27.953Z,59.95
2022-10-05T21:52:30.758Z,59.64
2022-10-05T21:53:33.579Z,59.94
2022-10-05T21:54:36.505Z,60.51
2022-10-05T21:55:39.770Z,60.56
2022-10-05T21:56:43.691Z,59.72
2022-10-05T21:57:45.453Z,59.82
2022-10-05T21:58:44.846Z,60.02
2022-10-05T21:59:48.231Z,59.68
2022-10-05T22:00:54.058Z,59.64
2022-10-05T22:01:57.440Z,59.3
2022-10-05T22:03:00.650Z,59.31
2022-10-05T22:04:01.034Z,58.88
2022-10-05T22:05:00.618Z,58.3
2022-10-05T22:06:02.588Z,57.88
2022-10-05T22:07:08.316Z,57.8
2022-10-05T22:08:04.697Z,57.21
2022-10-05T22:09:11.956Z,56.44
2022-10-05T22:10:06.353Z,56.27
2022-10-05T22:11:10.036Z,56.21
2022-10-05T22:47:01.624Z,55.22
2022-10-05T22:48:04.441Z,55.38
2022-10-05T22:49:07.238Z,54.88
2022-10-05T22:50:10.038Z,55.15
2022-10-05T22:51:12.854Z,55.6
2022-10-05T22:52:15.654Z,55.81
2022-10-05T22:53:18.450Z,56.63
2022-10-05T22:54:21.282Z,57.07
2022-10-05T22:55:24.103Z,57.38
2022-10-05T22:56:27.441Z,58.15
2022-10-05T22:57:30.671Z,58.17
2022-10-05T22:58:33.464Z,58.68
2022-10-05T23:00:58.659Z,59.06
2022-10-05T23:01:37.847Z,59.51
2022-10-05T23:02:41.056Z,59.65
2022-10-05T23:03:44.095Z,60.2
2022-10-05T23:04:46.883Z,60.23
2022-10-05T23:05:49.679Z,60.2
2022-10-05T23:06:52.449Z,60.77
2022-10-05T23:07:55.238Z,60.84
2022-10-05T23:08:58.025Z,61.09
2022-10-05T23:10:00.811Z,60.97
2022-10-05T23:11:03.590Z,61.17
2022-10-05T23:12:06.384Z,61.42
2022-10-05T23:13:09.240Z,61.58
2022-10-05T23:14:12.022Z,62.32
2022-10-05T23:15:14.828Z,62.32
2022-10-05T23:16:17.830Z,62.38
2022-10-05T23:17:17.778Z,62.6
2022-10-05T23:18:20.622Z,62.33
2022-10-05T23:19:23.426Z,63.6
2022-10-05T23:20:26.218Z,63.29
2022-10-05T23:21:29.004Z,63.49
2022-10-05T23:22:31.775Z,63.15
2022-10-05T23:23:34.582Z,62.76
2022-10-05T23:24:37.396Z,62.81
2022-10-05T23:25:40.191Z,62.63
2022-10-05T23:26:42.976Z,62.5
2022-10-05T23:27:45.767Z,61.97
2022-10-05T23:28:49.533Z,61.39
2022-10-05T23:29:49.638Z,60.72
2022-10-05T23:30:53.806Z,59.9
2022-10-05T23:31:53.654Z,59.63
2022-10-05T23:32:56.529Z,59.35
2022-10-05T23:33:59.389Z,58.79
2022-10-05T23:35:00.112Z,59.06
2022-10-05T23:36:02.925Z,59.56
2022-10-05T23:37:05.740Z,59.42
2022-10-05T23:38:08.519Z,58.91
2022-10-05T23:39:11.299Z,59.68
2022-10-05T23:40:14.084Z,59.41
2022-10-05T23:41:16.905Z,59.45
2022-10-05T23:42:19.728Z,59.5
2022-10-05T23:43:22.516Z,60.44
2022-10-05T23:44:25.299Z,60.71
2022-10-05T23:45:28.140Z,61.27
2022-10-05T23:46:30.957Z,61.4
2022-10-05T23:47:33.762Z,61.8
2022-10-05T23:48:36.533Z,62.41
2022-10-05T23:49:39.389Z,62.62
2022-10-05T23:50:42.174Z,62.74
2022-10-05T23:51:44.969Z,62.75
2022-10-05T23:52:47.756Z,62.99
2022-10-05T23:53:50.539Z,62.5
2022-10-05T23:54:53.378Z,62.39
2022-10-05T23:55:56.156Z,62.71
2022-10-05T23:56:58.964Z,62.79
2022-10-05T23:58:01.763Z,63.19
2022-10-05T23:59:04.556Z,63.2
